Decoded Metar for CYSC (SHERBROOKE in QC, CANADA) (IATA:YSC) | Meteo·Mobile Aviation Weather
aviador You're here:

CYSC Decoded Metar

SHERBROOKE in QC, CANADA
Report Time2018-12-14 13:00:00
UTC Time2018-12-14 13:32:53
Flight Rules vfr VFR
Wind100° at 02 kt
W.Decomp.*RWY 14: 1.8 kt HW 0.8 kt LCW
W.Rank100° ranks 14
Current wind is below 100° avg. (3.9)
Visibility9999 m
Phenomena:N/A
Clouds:Scattered 039 Hf
Broken 048 Hf
Expected CloudBase > 800 ft AGL from Temp-Dew spread
Ceiling4,800 ft
Temp-11°C (ISA -24)
Dew Point-13°C (85% RH)
AAT-15.0°C
QNH1028 hPa
Density Alt-2,746 ft
Elevation791 ft
Report Wrong Elevation
Raw Report
CYSC 141300Z AUTO 10002KT 9SM SCT039 BKN048 M11/M13 A3036 RMK
SLP305=

Extra information for CYSC:More info

Metar Taf Metar & Taf Last 4 Metars F.Rules Stats Wind Profile Meteogram Temp Stats Airport Information Weather charts Add Link Nearby VenuesMetar ALERT Operation Metar Decoded Social comments